Time;durP1;ratioP1;P1;durP2;ratioP2;P2;SDS_P1;SDS_P2;PMS_P1;PMS_P2;Temp;Humidity;BMP_temperature;BMP_pressure;BME280_temperature;BME280_humidity;BME280_pressure;Samples;Min_cycle;Max_cycle;Signal;HPM_P1;HPM_P2
2022/07/04 00:00:09;;;;;;;399.67;356.58;;;;;;;24.13;46.23;99807.28;342364;28;1494;-77
2022/07/04 00:00:19;;;;;;;401.33;358.25;;;;;;;24.11;46.97;99818.13;342255;28;1473;-77
2022/07/04 00:00:30;;;;;;;409.90;366.43;;;;;;;24.13;46.51;99810.78;343803;28;834;-77
2022/07/04 00:00:40;;;;;;;411.05;367.33;;;;;;;24.14;46.51;99811.63;343427;28;1333;-77
2022/07/04 00:00:50;;;;;;;409.70;365.87;;;;;;;24.13;46.41;99810.78;343267;28;1837;-77
2022/07/04 00:01:01;;;;;;;409.20;365.58;;;;;;;24.13;46.29;99815.28;345001;28;1317;-77
2022/07/04 00:01:11;;;;;;;410.80;367.17;;;;;;;24.12;46.38;99809.09;342641;28;1361;-78
2022/07/04 00:01:22;;;;;;;404.90;361.38;;;;;;;24.14;46.40;99814.31;345065;28;1148;-78
2022/07/04 00:01:32;;;;;;;399.13;355.60;;;;;;;24.12;46.32;99811.78;346455;28;1183;-78
2022/07/04 00:01:43;;;;;;;400.42;356.80;;;;;;;24.14;46.26;99815.16;343612;28;1342;-77
2022/07/04 00:01:53;;;;;;;405.83;362.07;;;;;;;24.13;46.50;99813.47;343653;28;1180;-78
2022/07/04 00:02:04;;;;;;;407.30;363.63;;;;;;;24.14;46.61;99809.81;342324;28;1339;-78
2022/07/04 00:02:14;;;;;;;403.85;360.35;;;;;;;24.14;46.39;99817.81;340932;29;831;-78
2022/07/04 00:02:25;;;;;;;398.27;355.15;;;;;;;24.14;46.10;99817.81;345933;28;1206;-76
2022/07/04 00:02:36;;;;;;;403.93;360.63;;;;;;;24.11;46.34;99812.78;344732;28;1604;-78
2022/07/04 00:02:46;;;;;;;407.88;364.38;;;;;;;24.13;46.01;99815.28;342482;28;904;-78
2022/07/04 00:02:57;;;;;;;409.98;366.27;;;;;;;24.11;46.45;99818.13;345028;28;862;-78
2022/07/04 00:03:07;;;;;;;407.13;363.53;;;;;;;24.12;46.29;99809.09;343928;28;1032;-78
2022/07/04 00:03:17;;;;;;;405.13;361.40;;;;;;;24.11;46.15;99815.44;343755;28;960;-78
2022/07/04 00:03:28;;;;;;;406.83;363.17;;;;;;;24.12;46.43;99817.13;342288;28;1223;-78
2022/07/04 00:03:38;;;;;;;408.07;364.30;;;;;;;24.12;46.13;99814.47;343637;28;1266;-78
2022/07/04 00:03:49;;;;;;;406.20;362.63;;;;;;;24.12;46.59;99816.28;342352;28;1216;-77
2022/07/04 00:03:59;;;;;;;403.45;359.70;;;;;;;24.13;46.28;99815.28;343699;28;1122;-77
2022/07/04 00:04:10;;;;;;;401.30;357.73;;;;;;;24.12;46.35;99814.47;341011;28;1328;-77
2022/07/04 00:04:20;;;;;;;403.50;359.97;;;;;;;24.13;46.59;99813.47;342287;28;1350;-77
2022/07/04 00:04:31;;;;;;;403.75;360.23;;;;;;;24.11;46.51;99815.44;340975;28;1269;-77
2022/07/04 00:04:41;;;;;;;397.10;353.60;;;;;;;24.12;46.56;99814.47;341019;29;1248;-77
2022/07/04 00:04:51;;;;;;;395.38;351.80;;;;;;;24.13;46.43;99810.78;343634;28;1231;-78
2022/07/04 00:05:02;;;;;;;397.87;354.33;;;;;;;24.13;46.50;99815.28;342254;28;1188;-78
2022/07/04 00:05:13;;;;;;;406.83;363.17;;;;;;;24.14;46.54;99815.16;342357;28;1208;-77
2022/07/04 00:05:23;;;;;;;406.40;362.92;;;;;;;24.08;45.89;99807.72;347804;28;1235;-77
2022/07/04 00:05:34;;;;;;;402.87;359.77;;;;;;;24.06;46.42;99809.69;345078;28;1207;-78
2022/07/04 00:05:44;;;;;;;400.38;357.45;;;;;;;24.03;46.27;99807.28;343546;28;1591;-78
2022/07/04 00:05:55;;;;;;;404.90;361.57;;;;;;;24.02;46.32;99813.63;342355;28;991;-78
2022/07/04 00:06:05;;;;;;;404.13;360.70;;;;;;;24.01;46.35;99814.63;343852;28;1431;-78
2022/07/04 00:06:17;;;;;;;402.10;358.77;;;;;;;24.00;46.30;99804.91;343826;28;909;-77
2022/07/04 00:06:27;;;;;;;400.33;357.27;;;;;;;24.02;46.62;99813.63;343637;28;1428;-77
2022/07/04 00:06:38;;;;;;;398.73;355.63;;;;;;;24.01;46.28;99814.63;344798;28;1188;-77
2022/07/04 00:06:48;;;;;;;398.35;355.40;;;;;;;24.00;46.29;99810.25;342959;28;884;-77
2022/07/04 00:06:58;;;;;;;401.07;358.13;;;;;;;24.01;46.34;99811.94;345164;28;1376;-77
2022/07/04 00:07:09;;;;;;;407.03;363.80;;;;;;;24.01;46.49;99817.28;344983;28;1327;-77
2022/07/04 00:07:19;;;;;;;410.15;366.77;;;;;;;24.02;46.10;99812.78;343623;28;1347;-77
2022/07/04 00:07:30;;;;;;;408.80;365.37;;;;;;;24.01;46.25;99809.25;343014;28;1138;-77
2022/07/04 00:07:41;;;;;;;409.95;366.70;;;;;;;24.01;46.24;99811.94;342480;28;1231;-76
2022/07/04 00:07:51;;;;;;;409.42;366.13;;;;;;;24.02;46.52;99816.31;343911;28;1007;-77
2022/07/04 00:08:02;;;;;;;410.67;367.13;;;;;;;24.03;46.18;99809.97;342401;28;889;-77
2022/07/04 00:08:12;;;;;;;397.63;354.60;;;;;;;24.03;46.14;99815.31;341125;29;819;-78
2022/07/04 00:08:23;;;;;;;399.13;356.03;;;;;;;23.99;46.15;99813.06;342552;28;1676;-77
2022/07/04 00:08:33;;;;;;;403.58;360.20;;;;;;;23.96;46.38;99808.00;342202;28;1944;-77
2022/07/04 00:08:43;;;;;;;412.80;369.07;;;;;;;23.92;45.99;99811.94;342455;28;1594;-78
2022/07/04 00:08:54;;;;;;;410.05;366.55;;;;;;;23.91;46.46;99805.75;343655;28;1224;-77
2022/07/04 00:09:04;;;;;;;403.63;360.50;;;;;;;23.91;46.24;99813.78;343690;28;1281;-77
2022/07/04 00:09:15;;;;;;;407.77;364.37;;;;;;;23.91;46.49;99811.09;340961;29;1457;-77
2022/07/04 00:09:25;;;;;;;409.52;366.05;;;;;;;23.91;46.27;99804.91;343680;28;1390;-78
2022/07/04 00:09:35;;;;;;;415.73;372.00;;;;;;;23.91;46.36;99808.44;343757;28;910;-77
2022/07/04 00:09:46;;;;;;;415.77;372.23;;;;;;;23.91;46.35;99811.09;343752;28;984;-77
2022/07/04 00:09:56;;;;;;;417.40;373.73;;;;;;;23.86;46.29;99808.84;343818;28;797;-77
2022/07/04 00:10:08;;;;;;;409.98;366.58;;;;;;;23.86;46.54;99810.69;341157;28;896;-77
2022/07/04 00:10:19;;;;;;;402.48;359.42;;;;;;;23.86;46.90;99808.00;343708;28;822;-77
2022/07/04 00:10:29;;;;;;;403.50;360.40;;;;;;;23.87;46.29;99809.69;344985;28;1252;-77
2022/07/04 00:10:39;;;;;;;409.90;366.33;;;;;;;23.86;46.64;99810.69;343467;28;1663;-77
2022/07/04 00:10:50;;;;;;;418.63;374.42;;;;;;;23.86;46.53;99808.00;344029;28;1430;-77
2022/07/04 00:11:00;;;;;;;421.23;377.10;;;;;;;23.88;46.48;99806.03;344597;28;1703;-77
2022/07/04 00:11:11;;;;;;;423.23;379.17;;;;;;;23.88;46.50;99811.38;343786;28;747;-78
2022/07/04 00:11:21;;;;;;;424.53;380.63;;;;;;;23.89;46.62;99813.06;343736;28;881;-77
2022/07/04 00:11:31;;;;;;;421.80;378.08;;;;;;;23.91;46.54;99816.44;346330;28;1214;-77
2022/07/04 00:11:42;;;;;;;422.43;378.47;;;;;;;23.93;46.47;99809.13;346329;28;1284;-78
2022/07/04 00:11:52;;;;;;;421.80;377.77;;;;;;;23.93;46.58;99803.78;342448;28;842;-76
2022/07/04 00:12:03;;;;;;;425.10;380.38;;;;;;;23.88;46.38;99800.69;341095;29;798;-76
2022/07/04 00:12:13;;;;;;;420.95;376.65;;;;;;;23.88;46.70;99800.69;343507;28;1221;-78
2022/07/04 00:12:24;;;;;;;417.00;373.00;;;;;;;23.89;46.80;99811.25;342376;28;1187;-77
2022/07/04 00:12:34;;;;;;;415.40;371.88;;;;;;;23.93;46.86;99810.97;341289;28;1320;-77
2022/07/04 00:12:45;;;;;;;417.97;374.23;;;;;;;23.93;46.26;99814.47;343597;28;1129;-77
2022/07/04 00:12:56;;;;;;;415.13;371.60;;;;;;;23.93;46.94;99814.47;342924;28;1593;-78
2022/07/04 00:13:07;;;;;;;418.65;374.92;;;;;;;23.94;46.71;99810.81;343521;28;1562;-77
2022/07/04 00:13:17;;;;;;;419.90;375.92;;;;;;;23.95;46.79;99807.16;343427;28;1736;-78
2022/07/04 00:13:28;;;;;;;425.73;381.23;;;;;;;23.90;46.87;99804.06;343495;28;1308;-77
2022/07/04 00:13:38;;;;;;;421.53;377.33;;;;;;;23.87;46.70;99804.34;342217;28;1433;-78
2022/07/04 00:13:48;;;;;;;420.92;376.95;;;;;;;23.85;46.38;99806.31;341008;29;2019;-77
2022/07/04 00:13:59;;;;;;;421.43;377.73;;;;;;;23.85;46.28;99806.31;343692;28;791;-77
2022/07/04 00:14:09;;;;;;;423.55;379.75;;;;;;;23.83;46.59;99805.63;343619;28;876;-78
2022/07/04 00:14:21;;;;;;;425.83;382.00;;;;;;;23.86;46.40;99808.00;343520;28;1177;-78
2022/07/04 00:14:31;;;;;;;425.35;381.58;;;;;;;23.86;46.33;99802.66;342465;28;912;-78
2022/07/04 00:14:42;;;;;;;423.03;379.30;;;;;;;23.88;46.30;99803.38;344979;28;1345;-77
2022/07/04 00:14:54;;;;;;;419.13;375.67;;;;;;;23.88;46.22;99806.88;342552;28;809;-76
2022/07/04 00:15:05;;;;;;;422.73;379.13;;;;;;;23.89;46.41;99805.91;341189;29;857;-77
2022/07/04 00:15:15;;;;;;;427.73;383.95;;;;;;;23.89;46.42;99797.03;342269;28;1538;-77
2022/07/04 00:15:26;;;;;;;432.00;387.87;;;;;;;23.92;46.07;99807.44;342444;28;881;-77
2022/07/04 00:15:36;;;;;;;425.98;382.25;;;;;;;23.92;46.44;99802.09;343782;28;1274;-77
2022/07/04 00:15:48;;;;;;;426.27;382.27;;;;;;;23.94;46.09;99804.63;343708;28;1658;-78
2022/07/04 00:15:59;;;;;;;422.08;378.10;;;;;;;23.95;46.29;99801.81;346235;28;1405;-77
2022/07/04 00:16:09;;;;;;;420.05;376.17;;;;;;;23.94;46.35;99800.13;343732;28;817;-77
2022/07/04 00:16:19;;;;;;;417.23;373.57;;;;;;;23.95;46.38;99800.97;340955;28;1172;-77
2022/07/04 00:16:30;;;;;;;418.33;374.38;;;;;;;23.95;46.67;99803.63;343679;28;1414;-76
2022/07/04 00:16:40;;;;;;;423.37;378.70;;;;;;;23.96;46.61;99803.50;343774;28;762;-78
2022/07/04 00:16:51;;;;;;;423.48;378.90;;;;;;;23.94;46.34;99800.13;342236;28;1350;-78
2022/07/04 00:17:01;;;;;;;426.63;381.97;;;;;;;23.96;46.38;99803.50;343688;28;1320;-78
2022/07/04 00:17:12;;;;;;;426.50;381.97;;;;;;;23.97;46.44;99799.00;345003;28;1317;-78
2022/07/04 00:17:22;;;;;;;425.15;380.88;;;;;;;23.97;46.56;99799.00;343607;28;1248;-77
2022/07/04 00:17:32;;;;;;;420.07;376.27;;;;;;;23.97;46.05;99805.19;342390;28;1196;-77
2022/07/04 00:17:43;;;;;;;423.13;379.20;;;;;;;23.98;46.06;99800.69;342276;28;1166;-77
2022/07/04 00:17:53;;;;;;;416.63;372.90;;;;;;;23.97;46.48;99805.19;341212;28;1293;-77
2022/07/04 00:18:04;;;;;;;413.90;370.27;;;;;;;23.98;46.63;99806.88;342934;28;1735;-77
2022/07/04 00:18:15;;;;;;;411.20;367.77;;;;;;;23.97;46.50;99799.84;343597;28;1212;-77
2022/07/04 00:18:25;;;;;;;416.35;372.80;;;;;;;23.98;46.81;99800.69;343786;28;1422;-77
2022/07/04 00:18:36;;;;;;;411.87;368.57;;;;;;;23.98;46.37;99798.84;345226;28;833;-78
2022/07/04 00:18:46;;;;;;;414.83;371.33;;;;;;;23.99;46.45;99803.22;343674;28;893;-78
2022/07/04 00:18:57;;;;;;;418.43;374.73;;;;;;;23.97;46.53;99794.50;342444;28;814;-78
2022/07/04 00:19:07;;;;;;;416.67;373.10;;;;;;;23.97;46.24;99802.50;342524;28;1184;-78
2022/07/04 00:19:18;;;;;;;409.50;366.20;;;;;;;23.96;46.42;99798.16;344969;28;1311;-78
2022/07/04 00:19:28;;;;;;;405.67;362.60;;;;;;;23.98;46.01;99796.19;342404;28;1284;-78
2022/07/04 00:19:39;;;;;;;409.58;365.95;;;;;;;24.00;46.18;99796.03;343856;28;817;-78
2022/07/04 00:19:49;;;;;;;411.83;367.98;;;;;;;23.99;46.22;99797.88;343598;28;1529;-78
2022/07/04 00:20:00;;;;;;;411.10;367.33;;;;;;;23.97;46.05;99799.84;343759;28;1176;-78
2022/07/04 00:20:10;;;;;;;408.38;365.27;;;;;;;23.94;45.82;99805.47;343792;28;838;-78
2022/07/04 00:20:21;;;;;;;405.63;362.83;;;;;;;23.90;45.99;99793.38;343874;28;905;-78
2022/07/04 00:20:31;;;;;;;405.17;362.20;;;;;;;23.89;46.25;99799.72;345171;28;1277;-78
2022/07/04 00:20:42;;;;;;;407.63;364.40;;;;;;;23.86;46.01;99797.31;342107;28;1573;-78
2022/07/04 00:20:53;;;;;;;409.60;366.45;;;;;;;23.84;46.14;99793.94;343581;28;1020;-78
2022/07/04 00:21:04;;;;;;;410.83;367.67;;;;;;;23.82;46.07;99795.94;342574;28;1338;-78
2022/07/04 00:21:14;;;;;;;409.63;366.43;;;;;;;23.80;46.26;99797.91;342824;28;1186;-78
2022/07/04 00:21:24;;;;;;;417.95;374.35;;;;;;;23.79;46.36;99797.06;341029;28;1390;-78
2022/07/04 00:21:35;;;;;;;423.50;379.53;;;;;;;23.80;46.33;99797.91;343428;28;1291;-77
2022/07/04 00:21:45;;;;;;;422.67;378.92;;;;;;;23.76;46.25;99793.84;345000;28;1405;-77
2022/07/04 00:21:56;;;;;;;418.23;374.60;;;;;;;23.76;46.27;99793.84;345127;28;904;-78
2022/07/04 00:22:07;;;;;;;415.85;372.45;;;;;;;23.78;46.43;99794.53;343737;28;873;-78
2022/07/04 00:22:17;;;;;;;423.30;379.42;;;;;;;23.77;46.54;99795.53;345278;28;746;-78
2022/07/04 00:22:27;;;;;;;428.07;383.93;;;;;;;23.81;46.42;99789.75;346395;28;1219;-78
2022/07/04 00:22:38;;;;;;;431.00;386.80;;;;;;;23.83;45.99;99797.59;343736;28;1180;-78
2022/07/04 00:22:48;;;;;;;428.23;384.37;;;;;;;23.85;46.06;99792.97;345079;28;1513;-77
2022/07/04 00:22:59;;;;;;;426.27;382.60;;;;;;;23.86;46.05;99791.97;345002;28;923;-77
2022/07/04 00:23:09;;;;;;;423.33;379.83;;;;;;;23.87;45.85;99794.50;343722;28;1201;-77
2022/07/04 00:23:20;;;;;;;422.37;378.83;;;;;;;23.88;46.17;99790.00;344701;28;1738;-77
2022/07/04 00:23:30;;;;;;;424.05;380.48;;;;;;;23.90;45.74;99793.38;345017;28;1464;-76
2022/07/04 00:23:40;;;;;;;428.57;384.43;;;;;;;23.92;45.88;99794.06;342347;28;1216;-76
2022/07/04 00:23:51;;;;;;;432.33;388.00;;;;;;;23.92;45.71;99794.06;343620;28;1478;-78
2022/07/04 00:24:01;;;;;;;430.33;386.13;;;;;;;23.91;46.31;99797.72;343767;28;813;-78
2022/07/04 00:24:14;;;;;;;425.73;382.00;;;;;;;23.92;45.79;99788.72;343618;28;1367;-78
2022/07/04 00:24:24;;;;;;;423.48;379.63;;;;;;;23.93;46.00;99792.25;343704;28;1300;-77
2022/07/04 00:24:35;;;;;;;423.02;379.13;;;;;;;23.93;45.83;99793.09;344743;28;1362;-78
2022/07/04 00:24:45;;;;;;;426.07;382.13;;;;;;;23.94;45.87;99794.78;345050;28;1300;-79
2022/07/04 00:24:56;;;;;;;424.65;381.02;;;;;;;23.93;45.87;99795.75;343910;28;861;-79
2022/07/04 00:25:07;;;;;;;423.13;379.63;;;;;;;23.95;45.89;99796.47;342504;28;920;-79
2022/07/04 00:25:18;;;;;;;418.63;375.20;;;;;;;23.97;45.98;99796.31;343626;28;1267;-78
2022/07/04 00:25:29;;;;;;;412.83;369.27;;;;;;;23.96;45.85;99792.81;346531;28;1272;-78
2022/07/04 00:25:39;;;;;;;415.60;371.87;;;;;;;23.96;45.80;99792.81;343620;28;1509;-78
2022/07/04 00:25:50;;;;;;;419.13;375.15;;;;;;;23.99;45.90;99792.53;345154;28;1193;-78
2022/07/04 00:26:00;;;;;;;424.33;380.33;;;;;;;24.00;45.82;99788.84;343755;28;841;-78
2022/07/04 00:26:10;;;;;;;419.73;375.63;;;;;;;24.00;46.07;99791.53;342339;28;1325;-78
2022/07/04 00:26:21;;;;;;;415.23;371.27;;;;;;;24.02;45.88;99791.38;345103;28;739;-78
2022/07/04 00:26:31;;;;;;;410.27;366.73;;;;;;;24.02;45.93;99794.91;345135;28;857;-78
2022/07/04 00:26:42;;;;;;;408.30;365.00;;;;;;;24.03;45.32;99793.06;343638;28;925;-78
2022/07/04 00:26:52;;;;;;;410.37;367.17;;;;;;;24.03;45.58;99791.25;343650;28;1380;-78
2022/07/04 00:27:03;;;;;;;411.05;367.63;;;;;;;23.99;45.56;99792.53;343765;28;909;-78
2022/07/04 00:27:13;;;;;;;409.02;365.63;;;;;;;23.99;45.59;99787.16;346225;28;1349;-78
2022/07/04 00:27:24;;;;;;;402.20;359.03;;;;;;;24.00;45.49;99788.84;345145;28;821;-78
2022/07/04 00:27:34;;;;;;;402.10;359.23;;;;;;;24.00;45.50;99793.38;345023;28;1318;-78
2022/07/04 00:27:45;;;;;;;403.00;360.13;;;;;;;24.01;45.46;99790.53;345088;28;1337;-78
2022/07/04 00:27:56;;;;;;;407.27;364.40;;;;;;;24.00;45.48;99794.22;342187;28;1237;-77
2022/07/04 00:28:06;;;;;;;409.13;366.27;;;;;;;24.02;45.58;99786.88;343952;28;1391;-77
2022/07/04 00:28:16;;;;;;;408.45;365.50;;;;;;;24.01;45.32;99785.19;342284;28;897;-77
2022/07/04 00:28:27;;;;;;;409.60;366.17;;;;;;;24.00;45.44;99788.00;342244;28;1220;-77
2022/07/04 00:28:37;;;;;;;410.60;366.92;;;;;;;24.01;45.84;99793.22;342345;28;1202;-76
2022/07/04 00:28:48;;;;;;;414.53;370.77;;;;;;;23.98;45.76;99790.00;345038;28;1311;-77
2022/07/04 00:28:58;;;;;;;410.70;367.02;;;;;;;24.00;45.58;99788.84;345018;28;1218;-77
2022/07/04 00:29:09;;;;;;;410.27;366.63;;;;;;;24.01;45.55;99785.19;343549;28;1584;-77
2022/07/04 00:29:19;;;;;;;409.60;365.90;;;;;;;24.02;45.79;99786.03;344058;28;1310;-77
2022/07/04 00:29:30;;;;;;;410.53;366.77;;;;;;;24.03;45.61;99790.41;342354;28;1179;-78
2022/07/04 00:29:40;;;;;;;408.30;364.70;;;;;;;23.96;45.49;99782.09;344418;28;1170;-78
2022/07/04 00:29:51;;;;;;;405.50;362.17;;;;;;;23.98;45.80;99782.81;343678;28;1164;-78
2022/07/04 00:30:02;;;;;;;405.15;361.95;;;;;;;23.98;45.68;99787.31;341032;29;1218;-78
2022/07/04 00:30:12;;;;;;;405.88;362.65;;;;;;;23.98;45.60;99790.84;343645;28;1403;-78
2022/07/04 00:30:23;;;;;;;405.30;362.10;;;;;;;23.98;45.83;99790.84;343636;28;1323;-77
2022/07/04 00:30:33;;;;;;;402.47;359.20;;;;;;;23.99;45.48;99783.66;342501;28;873;-78
2022/07/04 00:30:44;;;;;;;403.13;359.67;;;;;;;23.99;46.00;99787.16;343103;28;1540;-78
2022/07/04 00:30:54;;;;;;;403.87;360.30;;;;;;;24.00;46.03;99782.66;344655;28;1279;-78
2022/07/04 00:31:05;;;;;;;404.30;360.93;;;;;;;24.01;45.70;99784.34;345097;28;806;-77
2022/07/04 00:31:15;;;;;;;404.90;361.63;;;;;;;24.01;45.83;99779.84;343545;28;1247;-77
2022/07/04 00:31:25;;;;;;;404.87;361.73;;;;;;;24.02;45.59;99784.22;341047;28;1418;-77
2022/07/04 00:31:36;;;;;;;405.73;362.55;;;;;;;24.03;45.88;99793.91;342499;28;814;-78
2022/07/04 00:31:46;;;;;;;404.73;361.53;;;;;;;24.05;45.46;99791.09;343689;28;1176;-77
2022/07/04 00:31:57;;;;;;;403.02;359.95;;;;;;;24.04;45.71;99790.25;342134;28;1779;-78
2022/07/04 00:32:07;;;;;;;399.90;356.63;;;;;;;24.03;45.85;99793.91;340930;29;1757;-78
2022/07/04 00:32:18;;;;;;;398.75;355.60;;;;;;;24.05;45.63;99780.41;342255;28;1351;-78
2022/07/04 00:32:28;;;;;;;403.67;360.07;;;;;;;24.05;45.39;99785.75;341025;29;993;-78
2022/07/04 00:32:40;;;;;;;409.38;365.80;;;;;;;24.06;45.80;99782.94;341949;28;1286;-77
2022/07/04 00:32:50;;;;;;;405.15;361.50;;;;;;;24.05;45.17;99785.75;340949;29;1291;-78
2022/07/04 00:33:01;;;;;;;403.02;359.55;;;;;;;24.05;45.67;99794.63;342244;28;1470;-78
2022/07/04 00:33:12;;;;;;;403.47;359.57;;;;;;;24.05;45.26;99783.94;343605;28;1462;-77
2022/07/04 00:33:22;;;;;;;406.80;362.95;;;;;;;24.01;45.31;99785.19;342300;28;1493;-77
2022/07/04 00:33:35;;;;;;;402.97;359.53;;;;;;;23.99;45.31;99791.69;343336;28;1808;-77
2022/07/04 00:33:46;;;;;;;401.88;358.83;;;;;;;23.96;45.20;99779.44;345155;28;1770;-77
2022/07/04 00:33:56;;;;;;;405.27;362.03;;;;;;;23.91;45.68;99783.53;342370;28;1911;-77
2022/07/04 00:34:07;;;;;;;408.00;364.73;;;;;;;23.91;45.73;99788.88;342576;28;842;-77
2022/07/04 00:34:17;;;;;;;409.00;365.93;;;;;;;23.93;45.73;99785.06;341076;29;751;-77
2022/07/04 00:34:27;;;;;;;407.42;364.45;;;;;;;23.92;45.33;99786.06;342355;28;885;-77
2022/07/04 00:34:38;;;;;;;403.50;360.33;;;;;;;23.93;45.72;99782.41;342298;28;1356;-78
2022/07/04 00:34:48;;;;;;;403.75;360.48;;;;;;;23.94;45.80;99786.75;342383;28;1314;-78
2022/07/04 00:34:59;;;;;;;404.70;361.47;;;;;;;23.96;45.60;99786.63;343785;28;876;-78
2022/07/04 00:35:09;;;;;;;401.87;358.57;;;;;;;23.97;45.52;99789.16;343683;28;904;-78
2022/07/04 00:35:19;;;;;;;397.77;354.67;;;;;;;23.97;45.70;99789.16;344996;28;1244;-78
2022/07/04 00:35:30;;;;;;;399.27;355.90;;;;;;;23.96;45.61;99779.44;343906;28;881;-78
2022/07/04 00:35:40;;;;;;;400.17;357.27;;;;;;;24.00;45.64;99783.50;343356;28;1556;-79
2022/07/04 00:35:51;;;;;;;407.23;364.10;;;;;;;24.00;45.64;99783.50;345047;28;1158;-78
2022/07/04 00:36:01;;;;;;;409.52;366.48;;;;;;;24.02;45.88;99783.38;346462;28;777;-78
2022/07/04 00:36:12;;;;;;;416.40;373.03;;;;;;;24.03;45.59;99785.91;343517;28;1376;-78
2022/07/04 00:36:22;;;;;;;411.92;368.52;;;;;;;24.03;45.97;99783.22;344014;28;1181;-78
2022/07/04 00:36:33;;;;;;;410.40;367.07;;;;;;;24.07;45.55;99783.78;344820;28;1373;-78
2022/07/04 00:36:43;;;;;;;407.92;364.85;;;;;;;24.08;45.50;99786.31;343839;28;774;-75
2022/07/04 00:36:53;;;;;;;409.27;365.93;;;;;;;24.07;45.99;99779.28;343683;28;1188;-77
2022/07/04 00:37:04;;;;;;;405.57;362.27;;;;;;;24.10;45.66;99789.69;342246;28;1275;-77
2022/07/04 00:37:14;;;;;;;405.00;361.45;;;;;;;24.10;45.60;99783.50;342361;28;1031;-78
2022/07/04 00:37:25;;;;;;;402.40;359.13;;;;;;;24.10;45.85;99787.00;342271;28;1229;-78
2022/07/04 00:37:35;;;;;;;404.73;361.27;;;;;;;24.12;45.94;99790.38;339803;29;881;-78
2022/07/04 00:37:46;;;;;;;408.73;365.30;;;;;;;24.11;45.84;99796.72;342229;28;1264;-78
2022/07/04 00:37:56;;;;;;;409.55;366.45;;;;;;;24.11;45.43;99786.03;343554;28;1393;-78
2022/07/04 00:38:07;;;;;;;406.67;363.67;;;;;;;24.12;45.98;99786.88;342232;28;1534;-78
2022/07/04 00:38:17;;;;;;;404.02;361.05;;;;;;;24.10;45.76;99784.34;344303;28;1771;-78
2022/07/04 00:38:28;;;;;;;404.57;361.27;;;;;;;24.09;45.59;99793.34;345004;28;1450;-78
2022/07/04 00:38:38;;;;;;;405.00;361.73;;;;;;;24.07;45.71;99789.13;343781;28;802;-78
2022/07/04 00:38:49;;;;;;;404.83;361.53;;;;;;;24.06;45.98;99785.59;343561;28;1350;-78
2022/07/04 00:38:59;;;;;;;404.23;361.17;;;;;;;24.06;46.40;99782.94;343690;28;1321;-78
2022/07/04 00:39:09;;;;;;;401.93;359.07;;;;;;;24.08;46.23;99791.66;345040;28;1271;-77
2022/07/04 00:39:21;;;;;;;402.70;359.42;;;;;;;24.07;46.15;99787.28;346274;28;1375;-78
2022/07/04 00:39:31;;;;;;;400.10;356.70;;;;;;;24.08;46.01;99786.31;345029;28;1252;-77
2022/07/04 00:39:44;;;;;;;400.63;357.20;;;;;;;24.09;46.29;99788.00;343564;28;1198;-76
2022/07/04 00:39:55;;;;;;;402.43;359.30;;;;;;;24.09;46.37;99788.00;343738;28;845;-77
2022/07/04 00:40:06;;;;;;;399.85;356.90;;;;;;;24.11;46.12;99787.84;343743;28;1220;-77
2022/07/04 00:40:16;;;;;;;402.98;359.70;;;;;;;24.12;46.35;99792.22;342368;28;810;-78
2022/07/04 00:40:26;;;;;;;402.40;359.07;;;;;;;24.12;46.88;99782.34;342267;28;1479;-78
2022/07/04 00:40:37;;;;;;;402.45;358.88;;;;;;;24.11;46.58;99786.03;342252;28;1279;-78
2022/07/04 00:40:48;;;;;;;396.92;353.60;;;;;;;24.11;46.71;99786.03;344622;28;1533;-78
2022/07/04 00:40:58;;;;;;;395.63;352.33;;;;;;;24.10;46.35;99787.00;343644;28;1119;-78
2022/07/04 00:41:08;;;;;;;398.40;355.17;;;;;;;24.09;46.64;99788.00;342140;28;1443;-78
2022/07/04 00:41:19;;;;;;;399.97;356.83;;;;;;;24.10;46.56;99783.50;342400;28;857;-79
2022/07/04 00:41:29;;;;;;;394.13;351.37;;;;;;;24.09;46.53;99788.00;342279;28;1119;-78
2022/07/04 00:41:40;;;;;;;395.95;352.95;;;;;;;24.09;46.46;99785.31;342292;28;1320;-77
2022/07/04 00:41:50;;;;;;;399.70;356.23;;;;;;;24.10;46.74;99794.19;343886;28;1284;-77
2022/07/04 00:42:01;;;;;;;401.70;358.33;;;;;;;24.09;46.65;99787.16;345164;28;1247;-76
2022/07/04 00:42:11;;;;;;;399.90;356.73;;;;;;;24.08;46.67;99788.13;346435;28;912;-76
2022/07/04 00:42:22;;;;;;;396.13;353.42;;;;;;;24.08;46.89;99788.97;346393;28;1367;-78
2022/07/04 00:42:32;;;;;;;396.70;353.67;;;;;;;24.07;46.82;99784.63;343548;28;1408;-78
2022/07/04 00:42:42;;;;;;;403.05;359.48;;;;;;;24.06;46.59;99788.28;343628;28;828;-78
2022/07/04 00:42:53;;;;;;;407.40;363.60;;;;;;;24.06;46.74;99782.09;342282;28;1365;-78
2022/07/04 00:43:04;;;;;;;407.37;363.97;;;;;;;24.06;46.77;99793.63;344984;28;1247;-78
2022/07/04 00:43:43;;;;;;;404.55;361.38;;;;;;;24.08;46.68;99785.47;346228;28;1506;-78
2022/07/04 00:44:04;;;;;;;404.35;361.25;;;;;;;24.07;46.72;99789.97;341806;28;1773;-78
2022/07/04 00:44:18;;;;;;;406.70;363.10;;;;;;;24.07;47.11;99789.13;339453;29;1718;-77
2022/07/04 00:44:29;;;;;;;407.73;364.00;;;;;;;24.05;46.85;99780.41;339664;29;1348;-77
2022/07/04 00:44:39;;;;;;;408.13;364.73;;;;;;;24.05;46.95;99785.75;338215;29;1339;-76
2022/07/04 00:44:50;;;;;;;407.23;363.88;;;;;;;24.03;47.34;99782.38;338418;29;1293;-77
2022/07/04 00:45:00;;;;;;;398.90;355.90;;;;;;;24.02;47.39;99783.38;338390;29;1318;-77
2022/07/04 00:45:11;;;;;;;397.00;354.13;;;;;;;24.02;47.38;99781.53;339537;29;1068;-78
2022/07/04 00:45:21;;;;;;;396.63;353.20;;;;;;;24.02;47.24;99781.53;341013;29;739;-78
2022/07/04 00:45:32;;;;;;;406.10;361.87;;;;;;;24.02;47.44;99781.53;340933;29;834;-78
2022/07/04 00:45:42;;;;;;;402.40;358.35;;;;;;;24.03;47.42;99790.41;338043;29;1584;-78
2022/07/04 00:45:53;;;;;;;400.30;356.53;;;;;;;24.03;47.22;99788.56;341160;28;1331;-78
2022/07/04 00:46:04;;;;;;;396.27;353.15;;;;;;;24.01;47.20;99779.84;342233;28;1254;-78
2022/07/04 00:46:15;;;;;;;397.63;354.50;;;;;;;24.01;47.17;99781.69;339587;29;1303;-78
2022/07/04 00:46:25;;;;;;;398.00;355.03;;;;;;;23.99;47.41;99780.97;342330;28;918;-78
2022/07/04 00:46:36;;;;;;;403.17;359.90;;;;;;;24.01;47.64;99782.53;339479;29;1225;-78
2022/07/04 00:46:46;;;;;;;400.45;357.23;;;;;;;24.01;47.65;99777.19;339669;29;965;-78
2022/07/04 00:46:57;;;;;;;400.63;357.57;;;;;;;24.02;47.46;99786.03;343703;28;799;-78
2022/07/04 00:47:07;;;;;;;399.60;356.73;;;;;;;24.02;47.47;99781.53;342280;28;1295;-78
2022/07/04 00:47:17;;;;;;;398.27;355.47;;;;;;;24.01;47.80;99779.84;339516;28;1293;-77
2022/07/04 00:47:28;;;;;;;397.88;354.90;;;;;;;24.00;47.63;99786.19;342307;28;1335;-77
2022/07/04 00:47:38;;;;;;;397.33;354.37;;;;;;;23.99;47.29;99784.50;340878;29;1296;-77
2022/07/04 00:47:49;;;;;;;399.73;356.65;;;;;;;24.01;47.42;99781.69;336908;29;1477;-77
2022/07/04 00:47:59;;;;;;;403.97;360.63;;;;;;;23.98;47.30;99774.78;338322;29;886;-77
2022/07/04 00:48:09;;;;;;;399.77;356.58;;;;;;;23.98;47.51;99782.81;341037;29;822;-77
2022/07/04 00:48:20;;;;;;;400.57;357.33;;;;;;;24.01;47.41;99785.19;343371;28;1410;-77
2022/07/04 00:48:30;;;;;;;396.80;353.50;;;;;;;24.00;47.69;99780.84;339576;29;1306;-77
2022/07/04 00:48:41;;;;;;;400.98;357.73;;;;;;;24.00;47.73;99778.16;341002;29;863;-77
2022/07/04 00:48:51;;;;;;;405.27;361.87;;;;;;;23.99;47.83;99776.47;340893;29;1355;-77
2022/07/04 00:49:05;;;;;;;407.83;364.45;;;;;;;24.00;47.68;99774.66;341034;29;1264;-77
2022/07/04 00:49:16;;;;;;;403.27;360.08;;;;;;;23.98;48.07;99780.13;340932;29;1397;-77
2022/07/04 00:49:27;;;;;;;397.92;354.88;;;;;;;23.96;47.99;99781.25;339458;29;1329;-77